This is the latest recevied weather packets stored in our database for station/object KF0PEC-15. If no packets are shown the sender has not sent any weather packets the latest 10 day(s).
| Time | Temp. | Humidity | Pressure | Rain* | Wind** | Luminosity | Snow |
|---|---|---|---|---|---|---|---|
| 1777847265 | 21.11° C | 20% | 1004.5 hPa | 0 mm | - | 173 W/m² | - |
| 1777846740 | 20.56° C | 20% | 1005.1 hPa | 0 mm | - | 416 W/m² | - |
| 1777846177 | 21.11° C | 20% | 1005.1 hPa | 0 mm | - | 169 W/m² | - |
| 1777845645 | 21.11° C | 21% | 1004.9 hPa | 0 mm | - | 224 W/m² | - |
| 1777845150 | 20.56° C | 21% | 1005.4 hPa | 0 mm | - | 185 W/m² | - |
| 1777844640 | 20.56° C | 22% | 1005.5 hPa | 0 mm | - | 195 W/m² | - |
| 1777844070 | 21.11° C | 21% | 1005.6 hPa | 0 mm | - | 165 W/m² | - |
| 1777843475 | 21.11° C | 20% | 1005.7 hPa | 0 mm | - | 177 W/m² | - |
| 1777842890 | 21.11° C | 20% | 1005.9 hPa | 0 mm | - | 392 W/m² | - |
| 1777842290 | 21.11° C | 19% | 1006 hPa | 0 mm | - | 527 W/m² | - |
| 1777841705 | 21.67° C | 20% | 1005.9 hPa | 0 mm | - | 485 W/m² | - |
| 1777841125 | 21.67° C | 20% | 1005.8 hPa | 0 mm | - | 472 W/m² | - |
| 1777840565 | 21.67° C | 20% | 1006.1 hPa | 0 mm | - | 569 W/m² | - |
| 1777840050 | 22.22° C | 20% | 1005.9 hPa | 0 mm | - | 723 W/m² | - |
| 1777839520 | 21.67° C | 20% | 1006.5 hPa | 0 mm | - | 785 W/m² | - |
| 1777839020 | 21.67° C | 21% | 1006.6 hPa | 0 mm | - | 693 W/m² | - |
| 1777838480 | 21.11° C | 20% | 1007 hPa | 0 mm | - | 594 W/m² | - |
| 1777837915 | 21.67° C | 20% | 1006.9 hPa | 0 mm | - | 814 W/m² | - |
| 1777837380 | 21.11° C | 20% | 1007.5 hPa | 0 mm | - | 528 W/m² | - |
| 1777836870 | 20.56° C | 21% | 1007.8 hPa | 0 mm | - | 511 W/m² | - |
| 1777836330 | 20.56° C | 21% | 1008.2 hPa | 0 mm | - | 399 W/m² | - |
| 1777835835 | 21.11° C | 20% | 1008.1 hPa | 0 mm | - | 361 W/m² | - |
| 1777835305 | 21.67° C | 20% | 1007.5 hPa | 0 mm | - | 632 W/m² | - |
| 1777834775 | 21.67° C | 20% | 1007.9 hPa | 0 mm | - | 763 W/m² | - |
| 1777834295 | 21.11° C | 20% | 1008.2 hPa | 0 mm | - | 542 W/m² | - |
* Rain latest hour (hover to see other rain measurements)
** Current wind speed in m/s (hover to see current wind gust speed)